createdAt,value
2023-09-16T16:47:24.081Z,2.80
2023-09-16T16:50:25.269Z,3.00
2023-09-16T16:53:26.552Z,3.13
2023-09-16T16:56:27.425Z,3.30
2023-09-16T16:59:29.108Z,3.20
2023-09-16T17:02:30.820Z,2.75
2023-09-16T17:05:32.194Z,3.28
2023-09-16T17:08:33.495Z,3.55
2023-09-16T17:11:34.371Z,4.55
2023-09-16T17:14:36.173Z,4.13
2023-09-16T17:17:37.594Z,4.93
2023-09-16T17:20:38.539Z,4.32
2023-09-16T17:23:41.718Z,4.10
2023-09-16T17:26:43.718Z,3.50
2023-09-16T17:29:44.806Z,3.53
2023-09-16T17:32:46.073Z,3.80
2023-09-16T17:35:52.500Z,4.10
2023-09-16T17:38:54.848Z,4.00
2023-09-16T17:41:56.549Z,3.95
2023-09-16T17:44:57.824Z,3.53
2023-09-16T17:47:59.155Z,4.05
2023-09-16T17:51:00.514Z,4.70
2023-09-16T17:54:01.587Z,4.30
2023-09-16T17:57:02.679Z,4.63
2023-09-16T18:00:04.600Z,4.10
2023-09-16T18:03:15.865Z,4.50
2023-09-16T18:06:17.252Z,4.45
2023-09-16T18:09:18.769Z,4.18
2023-09-16T18:12:20.649Z,4.10
2023-09-16T18:15:21.466Z,3.97
2023-09-16T18:18:22.793Z,3.95
2023-09-16T18:21:24.225Z,3.70
2023-09-16T18:24:25.179Z,3.78
2023-09-16T18:27:26.258Z,3.85
2023-09-16T18:30:27.206Z,4.60
2023-09-16T18:33:30.320Z,4.43
2023-09-16T18:36:31.404Z,4.30
2023-09-16T18:39:32.362Z,3.88
2023-09-16T18:42:33.776Z,3.22
2023-09-16T18:45:34.654Z,3.30
2023-09-16T18:48:36.053Z,4.38
2023-09-16T18:51:36.927Z,4.15
2023-09-16T18:54:38.081Z,4.45
2023-09-16T18:57:39.235Z,5.50
2023-09-16T19:00:41.806Z,5.88
2023-09-16T19:03:43.661Z,5.25
2023-09-16T19:06:45.007Z,5.80
2023-09-16T19:09:46.509Z,6.38
2023-09-16T19:12:47.721Z,5.93
2023-09-16T19:15:48.938Z,6.30
2023-09-16T19:18:50.272Z,7.32
2023-09-16T19:21:52.147Z,6.20
2023-09-16T19:24:54.850Z,6.30
2023-09-16T19:27:56.156Z,6.47
2023-09-16T19:30:57.497Z,6.65
2023-09-16T19:33:58.857Z,6.15
2023-09-16T19:37:00.634Z,6.75
2023-09-16T19:40:02.965Z,7.05
2023-09-16T19:43:04.361Z,7.15
2023-09-16T19:46:08.109Z,7.45
2023-09-16T19:49:09.048Z,7.07
2023-09-16T19:52:10.456Z,6.97
2023-09-16T19:55:11.488Z,7.45
2023-09-16T19:58:12.485Z,7.28
2023-09-16T20:01:13.785Z,6.80
2023-09-16T20:04:15.168Z,7.55
2023-09-16T20:07:16.307Z,8.23
2023-09-16T20:10:17.644Z,7.50
2023-09-16T20:13:21.924Z,8.00
2023-09-16T20:16:23.779Z,6.97
2023-09-16T20:19:25.408Z,7.07
2023-09-16T20:22:26.364Z,7.53
2023-09-16T20:25:31.409Z,8.85
2023-09-16T20:28:32.869Z,8.77
2023-09-16T20:31:34.334Z,8.05
2023-09-16T20:34:35.250Z,7.80
2023-09-16T20:37:39.335Z,7.53
2023-09-16T20:40:40.571Z,8.02
2023-09-16T20:43:42.595Z,7.72
2023-09-16T20:46:44.095Z,8.43
2023-09-16T20:49:45.352Z,8.60
2023-09-16T20:52:46.607Z,9.43
2023-09-16T20:55:47.923Z,9.63
2023-09-16T20:58:48.917Z,8.35
2023-09-16T21:01:49.848Z,8.43
2023-09-16T21:04:51.574Z,7.75
2023-09-16T21:07:54.189Z,7.70
2023-09-16T21:10:54.988Z,8.43
2023-09-16T21:13:55.936Z,9.20
2023-09-16T21:16:57.672Z,8.57
2023-09-16T21:19:58.990Z,8.27
2023-09-16T21:23:00.295Z,8.30
2023-09-16T21:26:01.670Z,8.80
2023-09-16T21:29:02.441Z,9.35
2023-09-16T21:32:04.190Z,8.15
2023-09-16T21:35:05.815Z,7.97
2023-09-16T21:38:06.780Z,9.10
2023-09-16T21:41:07.799Z,8.35
2023-09-16T21:44:09.357Z,8.60
2023-09-16T21:47:11.352Z,8.75
2023-09-16T21:50:13.226Z,8.68
2023-09-16T21:53:14.248Z,8.90
2023-09-16T21:56:15.783Z,9.65
2023-09-16T21:59:16.646Z,9.23
2023-09-16T22:02:18.172Z,9.85
2023-09-16T22:05:20.919Z,9.60
2023-09-16T22:08:22.622Z,9.55
2023-09-16T22:11:23.935Z,10.13
2023-09-16T22:14:25.170Z,10.10
2023-09-16T22:17:26.991Z,9.88
2023-09-16T22:20:28.138Z,10.20
2023-09-16T22:23:29.295Z,10.55
2023-09-16T22:26:30.640Z,10.00
2023-09-16T22:29:31.420Z,10.43
2023-09-16T22:32:33.635Z,10.10
2023-09-16T22:35:34.634Z,10.82
2023-09-16T22:38:35.938Z,10.18
2023-09-16T22:41:37.001Z,11.32
2023-09-16T22:44:39.761Z,10.38
2023-09-16T22:47:43.557Z,11.98
2023-09-16T22:50:44.788Z,11.88
2023-09-16T22:53:46.185Z,10.68
2023-09-16T22:56:47.385Z,10.57
2023-09-16T22:59:56.180Z,11.52
2023-09-16T23:02:57.331Z,11.52
2023-09-16T23:05:59.262Z,11.48
2023-09-16T23:09:00.813Z,11.38
2023-09-16T23:12:02.166Z,11.07
2023-09-16T23:15:03.635Z,11.93
2023-09-16T23:18:05.477Z,11.10
2023-09-16T23:21:06.390Z,10.93
2023-09-16T23:24:07.563Z,10.80
2023-09-16T23:27:08.856Z,10.75
2023-09-16T23:30:10.930Z,10.57
2023-09-16T23:33:14.004Z,11.02
2023-09-16T23:36:15.655Z,11.10
2023-09-16T23:39:16.944Z,10.48
2023-09-16T23:42:18.172Z,11.10
2023-09-16T23:45:19.238Z,10.98
2023-09-16T23:48:20.187Z,11.73
2023-09-16T23:51:21.206Z,11.85
2023-09-16T23:54:22.034Z,11.25
2023-09-16T23:57:23.417Z,12.10
